sensor_id;sensor_type;location;lat;lon;timestamp;temperature;humidity
67182;DHT22;54114;53.524;49.396;2022-10-16T00:00:37;4.70;64.80
67182;DHT22;54114;53.524;49.396;2022-10-16T00:03:04;4.70;65.00
67182;DHT22;54114;53.524;49.396;2022-10-16T00:05:31;4.60;65.20
67182;DHT22;54114;53.524;49.396;2022-10-16T00:07:58;4.60;65.30
67182;DHT22;54114;53.524;49.396;2022-10-16T00:10:24;4.50;65.30
67182;DHT22;54114;53.524;49.396;2022-10-16T00:12:51;4.50;65.50
67182;DHT22;54114;53.524;49.396;2022-10-16T00:15:17;4.40;65.70
67182;DHT22;54114;53.524;49.396;2022-10-16T00:17:44;4.40;65.80
67182;DHT22;54114;53.524;49.396;2022-10-16T00:20:10;4.40;65.90
67182;DHT22;54114;53.524;49.396;2022-10-16T00:22:36;4.30;65.90
67182;DHT22;54114;53.524;49.396;2022-10-16T00:25:03;4.30;66.10
67182;DHT22;54114;53.524;49.396;2022-10-16T00:27:30;4.30;66.30
67182;DHT22;54114;53.524;49.396;2022-10-16T00:29:56;4.30;66.30
67182;DHT22;54114;53.524;49.396;2022-10-16T00:32:23;4.30;66.40
67182;DHT22;54114;53.524;49.396;2022-10-16T00:34:49;4.20;66.40
67182;DHT22;54114;53.524;49.396;2022-10-16T00:37:16;4.20;66.50
67182;DHT22;54114;53.524;49.396;2022-10-16T00:39:42;4.20;66.50
67182;DHT22;54114;53.524;49.396;2022-10-16T00:42:12;4.20;67.30
67182;DHT22;54114;53.524;49.396;2022-10-16T00:47:41;4.20;67.10
67182;DHT22;54114;53.524;49.396;2022-10-16T00:50:06;4.10;67.20
67182;DHT22;54114;53.524;49.396;2022-10-16T00:52:34;4.10;67.30
67182;DHT22;54114;53.524;49.396;2022-10-16T00:55:02;4.10;67.50
67182;DHT22;54114;53.524;49.396;2022-10-16T00:57:29;4.00;67.50
67182;DHT22;54114;53.524;49.396;2022-10-16T00:59:56;4.00;67.60
67182;DHT22;54114;53.524;49.396;2022-10-16T01:02:23;4.00;67.60
67182;DHT22;54114;53.524;49.396;2022-10-16T01:04:51;4.00;67.70
67182;DHT22;54114;53.524;49.396;2022-10-16T01:12:54;3.90;67.90
67182;DHT22;54114;53.524;49.396;2022-10-16T01:15:26;3.90;68.60
67182;DHT22;54114;53.524;49.396;2022-10-16T01:18:00;3.90;68.00
67182;DHT22;54114;53.524;49.396;2022-10-16T01:26:24;3.80;68.30
67182;DHT22;54114;53.524;49.396;2022-10-16T01:31:29;3.70;68.60
67182;DHT22;54114;53.524;49.396;2022-10-16T01:34:00;3.70;68.70
67182;DHT22;54114;53.524;49.396;2022-10-16T01:36:31;3.70;68.70
67182;DHT22;54114;53.524;49.396;2022-10-16T01:39:03;3.70;68.70
67182;DHT22;54114;53.524;49.396;2022-10-16T01:41:46;3.60;68.80
67182;DHT22;54114;53.524;49.396;2022-10-16T01:44:25;3.60;68.90
67182;DHT22;54114;53.524;49.396;2022-10-16T01:46:55;3.60;69.10
67182;DHT22;54114;53.524;49.396;2022-10-16T01:49:23;3.60;69.20
67182;DHT22;54114;53.524;49.396;2022-10-16T01:51:52;3.50;69.30
67182;DHT22;54114;53.524;49.396;2022-10-16T01:54:21;3.50;69.10
67182;DHT22;54114;53.524;49.396;2022-10-16T01:56:49;3.50;69.10
67182;DHT22;54114;53.524;49.396;2022-10-16T01:59:18;3.50;69.10
67182;DHT22;54114;53.524;49.396;2022-10-16T02:01:50;3.50;69.20
67182;DHT22;54114;53.524;49.396;2022-10-16T02:04:20;3.50;69.20
67182;DHT22;54114;53.524;49.396;2022-10-16T02:06:48;3.50;69.10
67182;DHT22;54114;53.524;49.396;2022-10-16T02:09:14;3.50;69.30
67182;DHT22;54114;53.524;49.396;2022-10-16T02:11:42;3.50;69.10
67182;DHT22;54114;53.524;49.396;2022-10-16T02:14:09;3.50;69.20
67182;DHT22;54114;53.524;49.396;2022-10-16T02:16:37;3.50;69.10
67182;DHT22;54114;53.524;49.396;2022-10-16T02:19:06;3.50;69.20
67182;DHT22;54114;53.524;49.396;2022-10-16T02:26:45;3.40;69.40
67182;DHT22;54114;53.524;49.396;2022-10-16T02:29:18;3.40;69.50
67182;DHT22;54114;53.524;49.396;2022-10-16T02:31:49;3.30;69.60
67182;DHT22;54114;53.524;49.396;2022-10-16T02:34:18;3.30;69.70
67182;DHT22;54114;53.524;49.396;2022-10-16T02:36:47;3.30;69.70
67182;DHT22;54114;53.524;49.396;2022-10-16T02:39:15;3.20;69.80
67182;DHT22;54114;53.524;49.396;2022-10-16T02:41:42;3.20;69.90
67182;DHT22;54114;53.524;49.396;2022-10-16T02:44:08;3.20;70.00
67182;DHT22;54114;53.524;49.396;2022-10-16T02:46:35;3.20;70.00
67182;DHT22;54114;53.524;49.396;2022-10-16T02:49:01;3.20;70.00
67182;DHT22;54114;53.524;49.396;2022-10-16T02:51:28;3.20;70.00
67182;DHT22;54114;53.524;49.396;2022-10-16T02:53:54;3.20;70.00
67182;DHT22;54114;53.524;49.396;2022-10-16T02:56:21;3.20;70.10
67182;DHT22;54114;53.524;49.396;2022-10-16T02:58:47;3.20;70.10
67182;DHT22;54114;53.524;49.396;2022-10-16T03:01:14;3.20;70.20
67182;DHT22;54114;53.524;49.396;2022-10-16T03:03:42;3.10;70.20
67182;DHT22;54114;53.524;49.396;2022-10-16T03:06:09;3.10;70.30
67182;DHT22;54114;53.524;49.396;2022-10-16T03:08:35;3.10;70.40
67182;DHT22;54114;53.524;49.396;2022-10-16T03:11:02;3.10;70.40
67182;DHT22;54114;53.524;49.396;2022-10-16T03:13:28;3.00;70.40
67182;DHT22;54114;53.524;49.396;2022-10-16T03:15:55;3.00;70.40
67182;DHT22;54114;53.524;49.396;2022-10-16T03:18:21;3.00;70.40
67182;DHT22;54114;53.524;49.396;2022-10-16T03:20:48;3.00;70.40
67182;DHT22;54114;53.524;49.396;2022-10-16T03:23:14;3.00;70.50
67182;DHT22;54114;53.524;49.396;2022-10-16T03:25:41;3.10;70.60
67182;DHT22;54114;53.524;49.396;2022-10-16T03:28:07;3.10;70.60
67182;DHT22;54114;53.524;49.396;2022-10-16T03:30:34;3.10;70.60
67182;DHT22;54114;53.524;49.396;2022-10-16T03:33:00;3.10;70.60
67182;DHT22;54114;53.524;49.396;2022-10-16T03:35:27;3.10;70.60
67182;DHT22;54114;53.524;49.396;2022-10-16T03:37:53;3.10;70.60
67182;DHT22;54114;53.524;49.396;2022-10-16T03:40:20;3.20;70.70
67182;DHT22;54114;53.524;49.396;2022-10-16T03:42:46;3.20;70.70
67182;DHT22;54114;53.524;49.396;2022-10-16T03:45:13;3.20;70.70
67182;DHT22;54114;53.524;49.396;2022-10-16T03:47:39;3.30;70.70
67182;DHT22;54114;53.524;49.396;2022-10-16T03:50:07;3.30;70.80
67182;DHT22;54114;53.524;49.396;2022-10-16T03:52:33;3.30;70.80
67182;DHT22;54114;53.524;49.396;2022-10-16T03:55:00;3.30;70.90
67182;DHT22;54114;53.524;49.396;2022-10-16T03:57:26;3.40;71.00
67182;DHT22;54114;53.524;49.396;2022-10-16T03:59:53;3.40;71.00
67182;DHT22;54114;53.524;49.396;2022-10-16T04:02:19;3.50;71.10
67182;DHT22;54114;53.524;49.396;2022-10-16T04:04:48;3.50;71.10
67182;DHT22;54114;53.524;49.396;2022-10-16T04:07:15;3.60;71.20
67182;DHT22;54114;53.524;49.396;2022-10-16T04:09:41;3.70;71.20
67182;DHT22;54114;53.524;49.396;2022-10-16T04:12:08;3.90;71.30
67182;DHT22;54114;53.524;49.396;2022-10-16T04:14:34;4.10;71.30
67182;DHT22;54114;53.524;49.396;2022-10-16T04:17:01;4.40;71.30
67182;DHT22;54114;53.524;49.396;2022-10-16T04:19:27;4.50;71.10
67182;DHT22;54114;53.524;49.396;2022-10-16T04:21:54;4.80;71.20
67182;DHT22;54114;53.524;49.396;2022-10-16T04:24:20;5.10;70.90
67182;DHT22;54114;53.524;49.396;2022-10-16T04:26:47;5.30;70.60
67182;DHT22;54114;53.524;49.396;2022-10-16T04:29:13;5.50;70.20
67182;DHT22;54114;53.524;49.396;2022-10-16T04:31:40;5.60;70.20
67182;DHT22;54114;53.524;49.396;2022-10-16T04:34:06;5.90;70.20
67182;DHT22;54114;53.524;49.396;2022-10-16T04:36:33;6.20;70.10
67182;DHT22;54114;53.524;49.396;2022-10-16T04:38:59;6.50;69.80
67182;DHT22;54114;53.524;49.396;2022-10-16T04:41:26;6.90;69.30
67182;DHT22;54114;53.524;49.396;2022-10-16T04:43:52;7.30;68.60
67182;DHT22;54114;53.524;49.396;2022-10-16T04:46:19;7.60;68.10
67182;DHT22;54114;53.524;49.396;2022-10-16T04:48:45;8.00;67.70
67182;DHT22;54114;53.524;49.396;2022-10-16T04:51:12;8.40;67.10
67182;DHT22;54114;53.524;49.396;2022-10-16T04:53:38;8.80;66.40
67182;DHT22;54114;53.524;49.396;2022-10-16T04:56:05;9.20;65.70
67182;DHT22;54114;53.524;49.396;2022-10-16T04:58:31;9.40;65.10
67182;DHT22;54114;53.524;49.396;2022-10-16T05:00:58;9.60;65.00
67182;DHT22;54114;53.524;49.396;2022-10-16T05:03:25;9.80;64.60
67182;DHT22;54114;53.524;49.396;2022-10-16T05:05:51;10.10;64.50
67182;DHT22;54114;53.524;49.396;2022-10-16T05:08:18;10.40;64.40
67182;DHT22;54114;53.524;49.396;2022-10-16T05:10:45;10.80;64.20
67182;DHT22;54114;53.524;49.396;2022-10-16T05:13:11;11.20;63.60
67182;DHT22;54114;53.524;49.396;2022-10-16T05:15:38;11.60;62.90
67182;DHT22;54114;53.524;49.396;2022-10-16T05:18:04;12.00;62.30
67182;DHT22;54114;53.524;49.396;2022-10-16T05:20:31;12.40;61.60
67182;DHT22;54114;53.524;49.396;2022-10-16T05:22:57;12.80;61.00
67182;DHT22;54114;53.524;49.396;2022-10-16T05:25:24;13.30;60.30
67182;DHT22;54114;53.524;49.396;2022-10-16T05:27:50;13.70;59.30
67182;DHT22;54114;53.524;49.396;2022-10-16T05:30:17;14.20;58.50
67182;DHT22;54114;53.524;49.396;2022-10-16T05:32:47;14.60;57.70
67182;DHT22;54114;53.524;49.396;2022-10-16T05:35:14;15.00;56.80
67182;DHT22;54114;53.524;49.396;2022-10-16T05:37:42;15.40;56.10
67182;DHT22;54114;53.524;49.396;2022-10-16T05:40:09;15.80;55.50
67182;DHT22;54114;53.524;49.396;2022-10-16T05:42:36;16.20;54.60
67182;DHT22;54114;53.524;49.396;2022-10-16T05:45:03;16.50;53.60
67182;DHT22;54114;53.524;49.396;2022-10-16T05:47:31;16.80;52.90
67182;DHT22;54114;53.524;49.396;2022-10-16T05:49:58;17.20;51.70
67182;DHT22;54114;53.524;49.396;2022-10-16T05:52:24;17.70;50.90
67182;DHT22;54114;53.524;49.396;2022-10-16T05:54:50;18.10;49.70
67182;DHT22;54114;53.524;49.396;2022-10-16T05:57:17;18.30;48.50
67182;DHT22;54114;53.524;49.396;2022-10-16T05:59:43;18.30;48.30
67182;DHT22;54114;53.524;49.396;2022-10-16T06:02:13;18.30;48.00
67182;DHT22;54114;53.524;49.396;2022-10-16T06:04:40;18.50;48.00
67182;DHT22;54114;53.524;49.396;2022-10-16T06:07:06;18.80;47.50
67182;DHT22;54114;53.524;49.396;2022-10-16T06:09:33;19.00;47.10
67182;DHT22;54114;53.524;49.396;2022-10-16T06:12:00;19.20;46.20
67182;DHT22;54114;53.524;49.396;2022-10-16T06:14:26;19.40;45.30
67182;DHT22;54114;53.524;49.396;2022-10-16T06:16:53;19.60;45.10
67182;DHT22;54114;53.524;49.396;2022-10-16T06:19:19;19.80;44.90
67182;DHT22;54114;53.524;49.396;2022-10-16T06:21:46;19.90;44.50
67182;DHT22;54114;53.524;49.396;2022-10-16T06:24:13;19.90;44.00
67182;DHT22;54114;53.524;49.396;2022-10-16T06:26:40;20.10;44.00
67182;DHT22;54114;53.524;49.396;2022-10-16T06:29:06;20.30;44.10
67182;DHT22;54114;53.524;49.396;2022-10-16T06:31:34;20.70;43.30
67182;DHT22;54114;53.524;49.396;2022-10-16T06:34:01;21.00;42.70
67182;DHT22;54114;53.524;49.396;2022-10-16T06:36:27;21.40;42.10
67182;DHT22;54114;53.524;49.396;2022-10-16T06:38:54;21.70;40.90
67182;DHT22;54114;53.524;49.396;2022-10-16T06:41:21;21.80;40.40
67182;DHT22;54114;53.524;49.396;2022-10-16T06:43:48;21.90;40.00
67182;DHT22;54114;53.524;49.396;2022-10-16T06:46:15;22.00;39.70
67182;DHT22;54114;53.524;49.396;2022-10-16T06:48:44;22.30;39.20
67182;DHT22;54114;53.524;49.396;2022-10-16T06:51:17;22.60;38.80
67182;DHT22;54114;53.524;49.396;2022-10-16T06:53:48;22.90;38.10
67182;DHT22;54114;53.524;49.396;2022-10-16T06:56:17;23.10;37.10
67182;DHT22;54114;53.524;49.396;2022-10-16T06:58:48;23.50;37.10
67182;DHT22;54114;53.524;49.396;2022-10-16T07:01:15;23.70;36.50
67182;DHT22;54114;53.524;49.396;2022-10-16T07:03:43;23.70;36.40
67182;DHT22;54114;53.524;49.396;2022-10-16T07:06:11;23.70;36.10
67182;DHT22;54114;53.524;49.396;2022-10-16T07:08:40;23.90;36.00
67182;DHT22;54114;53.524;49.396;2022-10-16T07:11:09;24.10;35.50
67182;DHT22;54114;53.524;49.396;2022-10-16T07:13:37;24.30;35.10
67182;DHT22;54114;53.524;49.396;2022-10-16T07:16:07;24.50;34.70
67182;DHT22;54114;53.524;49.396;2022-10-16T07:18:34;24.80;34.40
67182;DHT22;54114;53.524;49.396;2022-10-16T07:21:03;24.80;34.00
67182;DHT22;54114;53.524;49.396;2022-10-16T07:23:30;24.90;33.50
67182;DHT22;54114;53.524;49.396;2022-10-16T07:25:57;25.00;32.80
67182;DHT22;54114;53.524;49.396;2022-10-16T07:28:23;25.20;32.50
67182;DHT22;54114;53.524;49.396;2022-10-16T07:30:50;25.40;31.70
67182;DHT22;54114;53.524;49.396;2022-10-16T07:33:17;25.50;31.70
67182;DHT22;54114;53.524;49.396;2022-10-16T07:35:53;25.50;31.20
67182;DHT22;54114;53.524;49.396;2022-10-16T07:38:20;25.60;30.90
67182;DHT22;54114;53.524;49.396;2022-10-16T07:40:47;25.60;31.20
67182;DHT22;54114;53.524;49.396;2022-10-16T07:43:14;25.80;30.70
67182;DHT22;54114;53.524;49.396;2022-10-16T07:45:49;25.90;30.50
67182;DHT22;54114;53.524;49.396;2022-10-16T07:48:16;25.90;30.30
67182;DHT22;54114;53.524;49.396;2022-10-16T07:50:43;25.90;30.30
67182;DHT22;54114;53.524;49.396;2022-10-16T07:53:10;26.10;30.60
67182;DHT22;54114;53.524;49.396;2022-10-16T07:55:37;26.10;29.60
67182;DHT22;54114;53.524;49.396;2022-10-16T07:58:04;25.90;29.50
67182;DHT22;54114;53.524;49.396;2022-10-16T08:00:31;25.60;29.90
67182;DHT22;54114;53.524;49.396;2022-10-16T08:02:58;25.50;29.40
67182;DHT22;54114;53.524;49.396;2022-10-16T08:05:26;25.80;29.20
67182;DHT22;54114;53.524;49.396;2022-10-16T08:07:53;25.70;28.90
67182;DHT22;54114;53.524;49.396;2022-10-16T08:10:21;25.70;29.10
67182;DHT22;54114;53.524;49.396;2022-10-16T08:12:48;25.60;29.20
67182;DHT22;54114;53.524;49.396;2022-10-16T08:15:15;25.40;29.00
67182;DHT22;54114;53.524;49.396;2022-10-16T08:17:42;25.30;29.20
67182;DHT22;54114;53.524;49.396;2022-10-16T08:20:09;25.50;29.00
67182;DHT22;54114;53.524;49.396;2022-10-16T08:22:36;25.70;28.80
67182;DHT22;54114;53.524;49.396;2022-10-16T08:25:02;25.90;28.40
67182;DHT22;54114;53.524;49.396;2022-10-16T08:27:32;25.70;28.40
67182;DHT22;54114;53.524;49.396;2022-10-16T08:29:59;25.70;28.20
67182;DHT22;54114;53.524;49.396;2022-10-16T08:32:25;25.60;28.10
67182;DHT22;54114;53.524;49.396;2022-10-16T08:34:52;25.50;27.90
67182;DHT22;54114;53.524;49.396;2022-10-16T08:37:18;25.60;28.10
67182;DHT22;54114;53.524;49.396;2022-10-16T08:39:45;25.90;28.10
67182;DHT22;54114;53.524;49.396;2022-10-16T08:47:43;25.90;27.70
67182;DHT22;54114;53.524;49.396;2022-10-16T08:50:19;25.60;28.10
67182;DHT22;54114;53.524;49.396;2022-10-16T08:52:49;25.80;28.40
67182;DHT22;54114;53.524;49.396;2022-10-16T08:55:28;26.10;28.00
67182;DHT22;54114;53.524;49.396;2022-10-16T08:57:58;26.20;27.80
67182;DHT22;54114;53.524;49.396;2022-10-16T09:00:25;26.50;27.50
67182;DHT22;54114;53.524;49.396;2022-10-16T09:11:22;27.50;26.20
67182;DHT22;54114;53.524;49.396;2022-10-16T09:13:59;27.50;25.70
67182;DHT22;54114;53.524;49.396;2022-10-16T09:21:54;27.30;26.00
67182;DHT22;54114;53.524;49.396;2022-10-16T09:24:22;27.50;25.50
67182;DHT22;54114;53.524;49.396;2022-10-16T09:26:50;27.30;25.40
67182;DHT22;54114;53.524;49.396;2022-10-16T09:29:18;27.00;25.70
67182;DHT22;54114;53.524;49.396;2022-10-16T09:31:52;26.70;25.70
67182;DHT22;54114;53.524;49.396;2022-10-16T09:36:54;26.30;25.80
67182;DHT22;54114;53.524;49.396;2022-10-16T09:39:22;26.40;25.90
67182;DHT22;54114;53.524;49.396;2022-10-16T09:41:49;26.50;25.90
67182;DHT22;54114;53.524;49.396;2022-10-16T09:44:26;26.60;26.00
67182;DHT22;54114;53.524;49.396;2022-10-16T09:47:02;26.80;26.10
67182;DHT22;54114;53.524;49.396;2022-10-16T09:49:29;27.20;25.90
67182;DHT22;54114;53.524;49.396;2022-10-16T09:52:03;27.40;25.50
67182;DHT22;54114;53.524;49.396;2022-10-16T09:54:52;27.50;25.40
67182;DHT22;54114;53.524;49.396;2022-10-16T09:57:19;27.40;25.40
67182;DHT22;54114;53.524;49.396;2022-10-16T09:59:47;27.40;25.20
67182;DHT22;54114;53.524;49.396;2022-10-16T10:02:31;27.40;25.20
67182;DHT22;54114;53.524;49.396;2022-10-16T10:05:00;27.20;25.30
67182;DHT22;54114;53.524;49.396;2022-10-16T10:07:30;26.50;25.10
67182;DHT22;54114;53.524;49.396;2022-10-16T10:10:02;26.50;25.50
67182;DHT22;54114;53.524;49.396;2022-10-16T10:12:30;26.70;25.60
67182;DHT22;54114;53.524;49.396;2022-10-16T10:15:03;27.10;25.80
67182;DHT22;54114;53.524;49.396;2022-10-16T10:17:45;27.20;25.20
67182;DHT22;54114;53.524;49.396;2022-10-16T10:22:49;27.50;25.50
67182;DHT22;54114;53.524;49.396;2022-10-16T10:25:20;27.60;25.10
67182;DHT22;54114;53.524;49.396;2022-10-16T10:30:44;28.00;24.80
67182;DHT22;54114;53.524;49.396;2022-10-16T10:38:51;28.20;24.60
67182;DHT22;54114;53.524;49.396;2022-10-16T10:52:50;28.30;24.60
67182;DHT22;54114;53.524;49.396;2022-10-16T10:55:21;28.40;24.70
67182;DHT22;54114;53.524;49.396;2022-10-16T11:03:27;29.10;24.40
67182;DHT22;54114;53.524;49.396;2022-10-16T11:06:04;29.30;24.20
67182;DHT22;54114;53.524;49.396;2022-10-16T11:08:46;29.30;24.30
67182;DHT22;54114;53.524;49.396;2022-10-16T11:11:32;29.30;24.10
67182;DHT22;54114;53.524;49.396;2022-10-16T11:14:06;29.40;24.10
67182;DHT22;54114;53.524;49.396;2022-10-16T11:17:03;29.30;24.00
67182;DHT22;54114;53.524;49.396;2022-10-16T11:30:20;27.60;24.10
67182;DHT22;54114;53.524;49.396;2022-10-16T11:35:19;26.80;24.50
67182;DHT22;54114;53.524;49.396;2022-10-16T11:38:07;26.50;24.70
67182;DHT22;54114;53.524;49.396;2022-10-16T11:40:39;26.40;24.80
67182;DHT22;54114;53.524;49.396;2022-10-16T11:43:12;26.30;24.90
67182;DHT22;54114;53.524;49.396;2022-10-16T11:45:42;26.20;24.90
67182;DHT22;54114;53.524;49.396;2022-10-16T11:50:57;26.10;25.00
67182;DHT22;54114;53.524;49.396;2022-10-16T11:56:30;26.30;25.00
67182;DHT22;54114;53.524;49.396;2022-10-16T12:01:48;26.60;25.00
67182;DHT22;54114;53.524;49.396;2022-10-16T12:07:14;26.80;24.80
67182;DHT22;54114;53.524;49.396;2022-10-16T12:09:43;26.80;24.90
67182;DHT22;54114;53.524;49.396;2022-10-16T12:12:26;26.80;24.80
67182;DHT22;54114;53.524;49.396;2022-10-16T12:15:02;26.70;24.80
67182;DHT22;54114;53.524;49.396;2022-10-16T12:17:44;26.50;25.00
67182;DHT22;54114;53.524;49.396;2022-10-16T12:25:32;26.50;25.00
67182;DHT22;54114;53.524;49.396;2022-10-16T12:28:00;26.40;25.10
67182;DHT22;54114;53.524;49.396;2022-10-16T12:30:30;26.30;25.10
67182;DHT22;54114;53.524;49.396;2022-10-16T12:32:59;26.30;25.10
67182;DHT22;54114;53.524;49.396;2022-10-16T12:35:30;26.20;25.20
67182;DHT22;54114;53.524;49.396;2022-10-16T12:38:05;26.30;25.30
67182;DHT22;54114;53.524;49.396;2022-10-16T12:40:34;26.30;25.30
67182;DHT22;54114;53.524;49.396;2022-10-16T12:44:02;26.20;25.30
67182;DHT22;54114;53.524;49.396;2022-10-16T12:48:34;25.90;25.30
67182;DHT22;54114;53.524;49.396;2022-10-16T12:51:46;25.80;25.40
67182;DHT22;54114;53.524;49.396;2022-10-16T12:54:01;25.50;25.30
67182;DHT22;54114;53.524;49.396;2022-10-16T12:59:53;24.70;25.70
67182;DHT22;54114;53.524;49.396;2022-10-16T13:05:08;23.70;26.20
67182;DHT22;54114;53.524;49.396;2022-10-16T13:13:21;22.60;27.00
67182;DHT22;54114;53.524;49.396;2022-10-16T13:21:17;21.40;27.70
67182;DHT22;54114;53.524;49.396;2022-10-16T13:23:53;21.00;28.00
67182;DHT22;54114;53.524;49.396;2022-10-16T13:26:53;20.70;28.20
67182;DHT22;54114;53.524;49.396;2022-10-16T13:29:30;20.20;28.50
67182;DHT22;54114;53.524;49.396;2022-10-16T13:31:57;19.70;28.80
67182;DHT22;54114;53.524;49.396;2022-10-16T13:34:24;19.30;29.20
67182;DHT22;54114;53.524;49.396;2022-10-16T13:36:51;18.90;29.50
67182;DHT22;54114;53.524;49.396;2022-10-16T13:42:01;18.10;30.20
67182;DHT22;54114;53.524;49.396;2022-10-16T13:44:44;17.60;30.70
67182;DHT22;54114;53.524;49.396;2022-10-16T13:47:20;17.20;31.30
67182;DHT22;54114;53.524;49.396;2022-10-16T13:50:04;16.80;31.80
67182;DHT22;54114;53.524;49.396;2022-10-16T13:52:33;16.30;32.30
67182;DHT22;54114;53.524;49.396;2022-10-16T13:55:00;15.90;32.90
67182;DHT22;54114;53.524;49.396;2022-10-16T13:57:26;15.50;33.40
67182;DHT22;54114;53.524;49.396;2022-10-16T13:59:53;15.20;33.90
67182;DHT22;54114;53.524;49.396;2022-10-16T14:04:46;14.50;34.80
67182;DHT22;54114;53.524;49.396;2022-10-16T14:07:14;14.20;35.20
67182;DHT22;54114;53.524;49.396;2022-10-16T14:09:52;13.90;35.60
67182;DHT22;54114;53.524;49.396;2022-10-16T14:12:20;13.70;36.10
67182;DHT22;54114;53.524;49.396;2022-10-16T14:14:51;13.40;36.60
67182;DHT22;54114;53.524;49.396;2022-10-16T14:17:23;13.20;36.90
67182;DHT22;54114;53.524;49.396;2022-10-16T14:19:54;12.90;37.60
67182;DHT22;54114;53.524;49.396;2022-10-16T14:22:32;12.70;37.80
67182;DHT22;54114;53.524;49.396;2022-10-16T14:25:01;12.60;38.10
67182;DHT22;54114;53.524;49.396;2022-10-16T14:30:54;12.10;38.80
67182;DHT22;54114;53.524;49.396;2022-10-16T14:33:30;11.90;39.20
67182;DHT22;54114;53.524;49.396;2022-10-16T14:36:04;11.80;39.40
67182;DHT22;54114;53.524;49.396;2022-10-16T14:38:41;11.60;39.80
67182;DHT22;54114;53.524;49.396;2022-10-16T14:41:09;11.40;40.20
67182;DHT22;54114;53.524;49.396;2022-10-16T14:46:20;11.10;40.90
67182;DHT22;54114;53.524;49.396;2022-10-16T14:48:53;10.90;41.20
67182;DHT22;54114;53.524;49.396;2022-10-16T14:51:39;10.70;41.60
67182;DHT22;54114;53.524;49.396;2022-10-16T14:54:11;10.50;42.10
67182;DHT22;54114;53.524;49.396;2022-10-16T14:59:35;10.20;42.60
67182;DHT22;54114;53.524;49.396;2022-10-16T15:02:46;10.10;43.00
67182;DHT22;54114;53.524;49.396;2022-10-16T15:04:57;10.00;43.20
67182;DHT22;54114;53.524;49.396;2022-10-16T15:07:24;10.00;43.50
67182;DHT22;54114;53.524;49.396;2022-10-16T15:09:51;9.80;43.70
67182;DHT22;54114;53.524;49.396;2022-10-16T15:12:18;9.80;44.00
67182;DHT22;54114;53.524;49.396;2022-10-16T15:14:45;9.70;44.20
67182;DHT22;54114;53.524;49.396;2022-10-16T15:17:11;9.60;44.60
67182;DHT22;54114;53.524;49.396;2022-10-16T15:19:38;9.60;45.00
67182;DHT22;54114;53.524;49.396;2022-10-16T15:22:04;9.50;45.20
67182;DHT22;54114;53.524;49.396;2022-10-16T15:24:31;9.50;45.30
67182;DHT22;54114;53.524;49.396;2022-10-16T15:26:58;9.40;45.60
67182;DHT22;54114;53.524;49.396;2022-10-16T15:29:24;9.30;45.80
67182;DHT22;54114;53.524;49.396;2022-10-16T15:31:51;9.30;46.20
67182;DHT22;54114;53.524;49.396;2022-10-16T15:34:17;9.20;46.40
67182;DHT22;54114;53.524;49.396;2022-10-16T15:36:45;9.10;46.80
67182;DHT22;54114;53.524;49.396;2022-10-16T15:39:12;8.90;47.20
67182;DHT22;54114;53.524;49.396;2022-10-16T15:41:39;8.80;47.50
67182;DHT22;54114;53.524;49.396;2022-10-16T15:44:07;8.70;47.80
67182;DHT22;54114;53.524;49.396;2022-10-16T15:46:33;8.60;48.10
67182;DHT22;54114;53.524;49.396;2022-10-16T15:49:00;8.50;48.30
67182;DHT22;54114;53.524;49.396;2022-10-16T15:51:27;8.40;48.50
67182;DHT22;54114;53.524;49.396;2022-10-16T15:53:57;8.30;48.90
67182;DHT22;54114;53.524;49.396;2022-10-16T15:56:24;8.20;49.20
67182;DHT22;54114;53.524;49.396;2022-10-16T15:58:51;8.10;49.30
67182;DHT22;54114;53.524;49.396;2022-10-16T16:01:19;8.10;49.60
67182;DHT22;54114;53.524;49.396;2022-10-16T16:03:47;8.00;49.80
67182;DHT22;54114;53.524;49.396;2022-10-16T16:06:13;7.90;50.00
67182;DHT22;54114;53.524;49.396;2022-10-16T16:08:41;7.80;50.30
67182;DHT22;54114;53.524;49.396;2022-10-16T16:11:09;7.80;50.50
67182;DHT22;54114;53.524;49.396;2022-10-16T16:13:36;7.70;50.60
67182;DHT22;54114;53.524;49.396;2022-10-16T16:16:10;7.70;50.90
67182;DHT22;54114;53.524;49.396;2022-10-16T16:18:40;7.70;51.10
67182;DHT22;54114;53.524;49.396;2022-10-16T16:21:09;7.60;51.10
67182;DHT22;54114;53.524;49.396;2022-10-16T16:23:36;7.50;51.10
67182;DHT22;54114;53.524;49.396;2022-10-16T16:26:11;7.40;51.40
67182;DHT22;54114;53.524;49.396;2022-10-16T16:28:39;7.40;51.70
67182;DHT22;54114;53.524;49.396;2022-10-16T16:31:06;7.40;51.90
67182;DHT22;54114;53.524;49.396;2022-10-16T16:33:33;7.30;52.10
67182;DHT22;54114;53.524;49.396;2022-10-16T16:36:00;7.30;52.40
67182;DHT22;54114;53.524;49.396;2022-10-16T16:38:28;7.20;52.70
67182;DHT22;54114;53.524;49.396;2022-10-16T16:40:55;7.20;52.80
67182;DHT22;54114;53.524;49.396;2022-10-16T16:43:22;7.10;53.00
67182;DHT22;54114;53.524;49.396;2022-10-16T16:45:53;7.10;53.20
67182;DHT22;54114;53.524;49.396;2022-10-16T16:48:20;7.10;53.50
67182;DHT22;54114;53.524;49.396;2022-10-16T16:50:47;7.00;53.80
67182;DHT22;54114;53.524;49.396;2022-10-16T16:53:13;6.90;54.00
67182;DHT22;54114;53.524;49.396;2022-10-16T16:55:40;6.90;54.10
67182;DHT22;54114;53.524;49.396;2022-10-16T16:58:06;6.90;54.30
67182;DHT22;54114;53.524;49.396;2022-10-16T17:00:33;6.80;54.20
67182;DHT22;54114;53.524;49.396;2022-10-16T17:03:00;6.70;54.10
67182;DHT22;54114;53.524;49.396;2022-10-16T17:05:26;6.60;54.10
67182;DHT22;54114;53.524;49.396;2022-10-16T17:07:53;6.60;54.20
67182;DHT22;54114;53.524;49.396;2022-10-16T17:10:19;6.50;54.30
67182;DHT22;54114;53.524;49.396;2022-10-16T17:12:46;6.50;54.40
67182;DHT22;54114;53.524;49.396;2022-10-16T17:15:12;6.50;54.50
67182;DHT22;54114;53.524;49.396;2022-10-16T17:17:39;6.40;54.50
67182;DHT22;54114;53.524;49.396;2022-10-16T17:20:06;6.40;54.60
67182;DHT22;54114;53.524;49.396;2022-10-16T17:22:34;6.30;54.70
67182;DHT22;54114;53.524;49.396;2022-10-16T17:25:01;6.20;54.80
67182;DHT22;54114;53.524;49.396;2022-10-16T17:27:29;6.20;55.60
67182;DHT22;54114;53.524;49.396;2022-10-16T17:29:55;6.10;55.00
67182;DHT22;54114;53.524;49.396;2022-10-16T17:32:22;6.00;55.10
67182;DHT22;54114;53.524;49.396;2022-10-16T17:34:48;6.00;55.30
67182;DHT22;54114;53.524;49.396;2022-10-16T17:37:15;5.90;55.50
67182;DHT22;54114;53.524;49.396;2022-10-16T17:39:41;5.80;55.70
67182;DHT22;54114;53.524;49.396;2022-10-16T17:42:08;5.80;55.80
67182;DHT22;54114;53.524;49.396;2022-10-16T17:44:34;5.80;55.90
67182;DHT22;54114;53.524;49.396;2022-10-16T17:47:01;5.70;56.00
67182;DHT22;54114;53.524;49.396;2022-10-16T17:49:27;5.70;56.20